sensor_id;sensor_type;location;lat;lon;timestamp;pressure;altitude;pressure_sealevel;temperature
65316;BMP280;51920;53.952;10.292;2023-04-25T00:01:04;99923.91;;;8.16
65316;BMP280;51920;53.952;10.292;2023-04-25T00:03:32;99923.53;;;8.21
65316;BMP280;51920;53.952;10.292;2023-04-25T00:05:58;99927.03;;;8.25
65316;BMP280;51920;53.952;10.292;2023-04-25T00:08:29;99931.69;;;8.28
65316;BMP280;51920;53.952;10.292;2023-04-25T00:10:57;99931.63;;;8.17
65316;BMP280;51920;53.952;10.292;2023-04-25T00:13:23;99925.44;;;8.06
65316;BMP280;51920;53.952;10.292;2023-04-25T00:15:52;99930.81;;;8.02
65316;BMP280;51920;53.952;10.292;2023-04-25T00:18:19;99940.00;;;7.98
65316;BMP280;51920;53.952;10.292;2023-04-25T00:20:46;99934.56;;;7.87
65316;BMP280;51920;53.952;10.292;2023-04-25T00:23:14;99934.94;;;7.89
65316;BMP280;51920;53.952;10.292;2023-04-25T00:25:48;99932.63;;;7.84
65316;BMP280;51920;53.952;10.292;2023-04-25T00:28:16;99934.91;;;7.75
65316;BMP280;51920;53.952;10.292;2023-04-25T00:30:43;99930.28;;;7.79
65316;BMP280;51920;53.952;10.292;2023-04-25T00:33:10;99936.81;;;7.78
65316;BMP280;51920;53.952;10.292;2023-04-25T00:35:37;99933.75;;;7.79
65316;BMP280;51920;53.952;10.292;2023-04-25T00:38:04;99927.88;;;7.66
65316;BMP280;51920;53.952;10.292;2023-04-25T00:40:31;99938.66;;;7.66
65316;BMP280;51920;53.952;10.292;2023-04-25T00:42:57;99940.59;;;7.66
65316;BMP280;51920;53.952;10.292;2023-04-25T00:45:28;99941.34;;;7.63
65316;BMP280;51920;53.952;10.292;2023-04-25T00:47:56;99938.19;;;7.54
65316;BMP280;51920;53.952;10.292;2023-04-25T00:50:24;99943.66;;;7.61
65316;BMP280;51920;53.952;10.292;2023-04-25T00:52:51;99927.38;;;7.46
65316;BMP280;51920;53.952;10.292;2023-04-25T00:55:18;99931.28;;;7.53
65316;BMP280;51920;53.952;10.292;2023-04-25T00:57:45;99934.78;;;7.57
65316;BMP280;51920;53.952;10.292;2023-04-25T01:00:14;99940.53;;;7.55
65316;BMP280;51920;53.952;10.292;2023-04-25T01:02:41;99943.97;;;7.52
65316;BMP280;51920;53.952;10.292;2023-04-25T01:05:09;99949.94;;;7.31
65316;BMP280;51920;53.952;10.292;2023-04-25T01:07:35;99933.44;;;7.33
65316;BMP280;51920;53.952;10.292;2023-04-25T01:10:02;99950.44;;;7.40
65316;BMP280;51920;53.952;10.292;2023-04-25T01:12:29;99941.91;;;7.35
65316;BMP280;51920;53.952;10.292;2023-04-25T01:14:56;99952.72;;;7.42
65316;BMP280;51920;53.952;10.292;2023-04-25T01:17:23;99942.75;;;7.39
65316;BMP280;51920;53.952;10.292;2023-04-25T01:19:50;99950.38;;;7.33
65316;BMP280;51920;53.952;10.292;2023-04-25T01:22:17;99948.47;;;7.34
65316;BMP280;51920;53.952;10.292;2023-04-25T01:24:45;99954.59;;;7.34
65316;BMP280;51920;53.952;10.292;2023-04-25T01:27:12;99945.75;;;7.34
65316;BMP280;51920;53.952;10.292;2023-04-25T01:29:40;99945.72;;;7.26
65316;BMP280;51920;53.952;10.292;2023-04-25T01:32:07;99937.19;;;7.21
65316;BMP280;51920;53.952;10.292;2023-04-25T01:34:34;99948.00;;;7.24
65316;BMP280;51920;53.952;10.292;2023-04-25T01:37:00;99961.00;;;7.19
65316;BMP280;51920;53.952;10.292;2023-04-25T01:39:29;99954.81;;;7.11
65316;BMP280;51920;53.952;10.292;2023-04-25T01:41:56;99957.13;;;7.13
65316;BMP280;51920;53.952;10.292;2023-04-25T01:44:23;99955.53;;;7.08
65316;BMP280;51920;53.952;10.292;2023-04-25T01:46:50;99950.91;;;7.05
65316;BMP280;51920;53.952;10.292;2023-04-25T01:49:16;99956.94;;;6.95
65316;BMP280;51920;53.952;10.292;2023-04-25T01:51:43;99966.59;;;6.99
65316;BMP280;51920;53.952;10.292;2023-04-25T01:54:10;99970.47;;;6.98
65316;BMP280;51920;53.952;10.292;2023-04-25T01:56:37;99970.09;;;7.00
65316;BMP280;51920;53.952;10.292;2023-04-25T01:59:06;99965.44;;;6.97
65316;BMP280;51920;53.952;10.292;2023-04-25T02:02:08;99978.50;;;6.95
65316;BMP280;51920;53.952;10.292;2023-04-25T02:04:35;99981.19;;;6.95
65316;BMP280;51920;53.952;10.292;2023-04-25T02:07:03;99980.41;;;6.91
65316;BMP280;51920;53.952;10.292;2023-04-25T02:09:47;99983.00;;;6.83
65316;BMP280;51920;53.952;10.292;2023-04-25T02:12:15;99983.31;;;6.78
65316;BMP280;51920;53.952;10.292;2023-04-25T02:15:02;99992.91;;;6.76
65316;BMP280;51920;53.952;10.292;2023-04-25T02:17:39;99979.72;;;6.67
65316;BMP280;51920;53.952;10.292;2023-04-25T02:20:06;99989.03;;;6.73
65316;BMP280;51920;53.952;10.292;2023-04-25T02:22:33;99995.53;;;6.72
65316;BMP280;51920;53.952;10.292;2023-04-25T02:25:01;99994.31;;;6.62
65316;BMP280;51920;53.952;10.292;2023-04-25T02:27:28;100001.25;;;6.67
65316;BMP280;51920;53.952;10.292;2023-04-25T02:29:55;100003.03;;;6.56
65316;BMP280;51920;53.952;10.292;2023-04-25T02:32:22;100003.75;;;6.49
65316;BMP280;51920;53.952;10.292;2023-04-25T02:34:49;100002.56;;;6.46
65316;BMP280;51920;53.952;10.292;2023-04-25T02:37:16;99998.19;;;6.35
65316;BMP280;51920;53.952;10.292;2023-04-25T02:39:44;99990.88;;;6.35
65316;BMP280;51920;53.952;10.292;2023-04-25T02:42:11;99976.41;;;6.17
65316;BMP280;51920;53.952;10.292;2023-04-25T02:44:38;99994.94;;;6.22
65316;BMP280;51920;53.952;10.292;2023-04-25T02:47:04;99994.53;;;6.20
65316;BMP280;51920;53.952;10.292;2023-04-25T02:49:31;99999.06;;;6.16
65316;BMP280;51920;53.952;10.292;2023-04-25T02:51:57;99996.88;;;6.25
65316;BMP280;51920;53.952;10.292;2023-04-25T02:54:24;99995.53;;;6.12
65316;BMP280;51920;53.952;10.292;2023-04-25T02:56:51;99994.38;;;6.09
65316;BMP280;51920;53.952;10.292;2023-04-25T02:59:23;99994.19;;;5.95
65316;BMP280;51920;53.952;10.292;2023-04-25T03:01:50;99994.84;;;5.88
65316;BMP280;51920;53.952;10.292;2023-04-25T03:04:16;100004.03;;;5.87
65316;BMP280;51920;53.952;10.292;2023-04-25T03:06:45;100002.38;;;5.79
65316;BMP280;51920;53.952;10.292;2023-04-25T03:09:11;100006.13;;;5.74
65316;BMP280;51920;53.952;10.292;2023-04-25T03:11:38;100006.13;;;5.74
65316;BMP280;51920;53.952;10.292;2023-04-25T03:14:05;100013.28;;;5.66
65316;BMP280;51920;53.952;10.292;2023-04-25T03:16:31;100016.00;;;5.66
65316;BMP280;51920;53.952;10.292;2023-04-25T03:18:58;100006.31;;;5.62
65316;BMP280;51920;53.952;10.292;2023-04-25T03:21:25;100017.53;;;5.68
65316;BMP280;51920;53.952;10.292;2023-04-25T03:23:52;100015.25;;;5.70
65316;BMP280;51920;53.952;10.292;2023-04-25T03:26:19;100015.25;;;5.70
65316;BMP280;51920;53.952;10.292;2023-04-25T03:28:47;100015.88;;;5.59
65316;BMP280;51920;53.952;10.292;2023-04-25T03:31:13;100033.78;;;5.75
65316;BMP280;51920;53.952;10.292;2023-04-25T03:33:40;100021.78;;;5.69
65316;BMP280;51920;53.952;10.292;2023-04-25T03:36:07;100026.84;;;5.74
65316;BMP280;51920;53.952;10.292;2023-04-25T03:38:34;100026.13;;;5.77
65316;BMP280;51920;53.952;10.292;2023-04-25T03:41:02;100024.59;;;5.76
65316;BMP280;51920;53.952;10.292;2023-04-25T03:43:37;100031.88;;;5.75
65316;BMP280;51920;53.952;10.292;2023-04-25T03:46:09;100032.28;;;5.77
65316;BMP280;51920;53.952;10.292;2023-04-25T03:48:36;100029.19;;;5.75
65316;BMP280;51920;53.952;10.292;2023-04-25T03:51:03;100032.34;;;5.81
65316;BMP280;51920;53.952;10.292;2023-04-25T03:53:32;100037.19;;;5.72
65316;BMP280;51920;53.952;10.292;2023-04-25T03:56:14;100032.06;;;5.63
65316;BMP280;51920;53.952;10.292;2023-04-25T03:58:41;100032.88;;;5.67
65316;BMP280;51920;53.952;10.292;2023-04-25T04:01:07;100037.47;;;5.66
65316;BMP280;51920;53.952;10.292;2023-04-25T04:03:36;100032.84;;;5.63
65316;BMP280;51920;53.952;10.292;2023-04-25T04:06:04;100035.09;;;5.61
65316;BMP280;51920;53.952;10.292;2023-04-25T04:08:35;100038.25;;;5.67
65316;BMP280;51920;53.952;10.292;2023-04-25T04:11:02;100040.59;;;5.69
65316;BMP280;51920;53.952;10.292;2023-04-25T04:13:29;100038.31;;;5.71
65316;BMP280;51920;53.952;10.292;2023-04-25T04:15:56;100034.50;;;5.72
65316;BMP280;51920;53.952;10.292;2023-04-25T04:18:23;100035.56;;;5.67
65316;BMP280;51920;53.952;10.292;2023-04-25T04:20:50;100043.41;;;5.76
65316;BMP280;51920;53.952;10.292;2023-04-25T04:23:17;100056.53;;;5.81
65316;BMP280;51920;53.952;10.292;2023-04-25T04:25:43;100050.31;;;5.77
65316;BMP280;51920;53.952;10.292;2023-04-25T04:28:26;100051.09;;;5.77
65316;BMP280;51920;53.952;10.292;2023-04-25T04:31:01;100059.28;;;5.84
65316;BMP280;51920;53.952;10.292;2023-04-25T04:33:29;100057.00;;;5.86
65316;BMP280;51920;53.952;10.292;2023-04-25T04:36:01;100063.56;;;5.89
65316;BMP280;51920;53.952;10.292;2023-04-25T04:38:29;100074.03;;;5.94
65316;BMP280;51920;53.952;10.292;2023-04-25T04:41:00;100068.53;;;5.87
65316;BMP280;51920;53.952;10.292;2023-04-25T04:43:54;100073.28;;;5.97
65316;BMP280;51920;53.952;10.292;2023-04-25T04:46:34;100073.28;;;5.97
65316;BMP280;51920;53.952;10.292;2023-04-25T04:49:25;100081.06;;;6.02
65316;BMP280;51920;53.952;10.292;2023-04-25T04:52:06;100082.53;;;6.00
65316;BMP280;51920;53.952;10.292;2023-04-25T04:54:50;100077.41;;;6.14
65316;BMP280;51920;53.952;10.292;2023-04-25T04:57:34;100080.09;;;6.14
65316;BMP280;51920;53.952;10.292;2023-04-25T05:00:14;100086.19;;;6.11
65316;BMP280;51920;53.952;10.292;2023-04-25T05:03:00;100088.22;;;6.18
65316;BMP280;51920;53.952;10.292;2023-04-25T05:05:58;100100.38;;;6.12
65316;BMP280;51920;53.952;10.292;2023-04-25T05:08:50;100097.75;;;6.15
65316;BMP280;51920;53.952;10.292;2023-04-25T05:11:17;100103.22;;;6.19
65316;BMP280;51920;53.952;10.292;2023-04-25T05:14:11;100103.22;;;6.19
65316;BMP280;51920;53.952;10.292;2023-04-25T05:17:02;100109.84;;;6.25
65316;BMP280;51920;53.952;10.292;2023-04-25T05:19:50;100102.84;;;6.20
65316;BMP280;51920;53.952;10.292;2023-04-25T05:22:32;100113.59;;;6.20
65316;BMP280;51920;53.952;10.292;2023-04-25T05:25:12;100124.31;;;6.17
65316;BMP280;51920;53.952;10.292;2023-04-25T05:28:02;100122.47;;;6.24
65316;BMP280;51920;53.952;10.292;2023-04-25T05:31:09;100124.59;;;6.35
65316;BMP280;51920;53.952;10.292;2023-04-25T05:33:54;100120.78;;;6.36
65316;BMP280;51920;53.952;10.292;2023-04-25T05:36:25;100123.41;;;6.32
65316;BMP280;51920;53.952;10.292;2023-04-25T05:38:52;100128.56;;;6.44
65316;BMP280;51920;53.952;10.292;2023-04-25T05:41:19;100131.69;;;6.46
65316;BMP280;51920;53.952;10.292;2023-04-25T05:44:21;100136.31;;;6.50
65316;BMP280;51920;53.952;10.292;2023-04-25T05:47:00;100132.50;;;6.51
65316;BMP280;51920;53.952;10.292;2023-04-25T05:49:45;100137.69;;;6.36
65316;BMP280;51920;53.952;10.292;2023-04-25T05:52:32;100140.53;;;6.47
65316;BMP280;51920;53.952;10.292;2023-04-25T05:55:07;100137.16;;;6.54
65316;BMP280;51920;53.952;10.292;2023-04-25T05:57:34;100143.28;;;6.51
65316;BMP280;51920;53.952;10.292;2023-04-25T06:00:01;100138.69;;;6.55
65316;BMP280;51920;53.952;10.292;2023-04-25T06:02:38;100148.25;;;6.79
65316;BMP280;51920;53.952;10.292;2023-04-25T06:05:06;100146.41;;;6.83
65316;BMP280;51920;53.952;10.292;2023-04-25T06:07:33;100145.59;;;7.09
65316;BMP280;51920;53.952;10.292;2023-04-25T06:10:02;100151.47;;;7.52
65316;BMP280;51920;53.952;10.292;2023-04-25T06:12:30;100147.47;;;7.39
65316;BMP280;51920;53.952;10.292;2023-04-25T06:14:56;100152.19;;;7.15
65316;BMP280;51920;53.952;10.292;2023-04-25T06:17:23;100156.47;;;7.16
65316;BMP280;51920;53.952;10.292;2023-04-25T06:19:50;100158.63;;;7.07
65316;BMP280;51920;53.952;10.292;2023-04-25T06:22:18;100154.13;;;7.15
65316;BMP280;51920;53.952;10.292;2023-04-25T06:24:44;100160.13;;;7.04
65316;BMP280;51920;53.952;10.292;2023-04-25T06:27:12;100154.31;;;7.33
65316;BMP280;51920;53.952;10.292;2023-04-25T06:29:39;100162.09;;;7.38
65316;BMP280;51920;53.952;10.292;2023-04-25T06:32:06;100172.28;;;7.55
65316;BMP280;51920;53.952;10.292;2023-04-25T06:34:33;100169.00;;;7.73
65316;BMP280;51920;53.952;10.292;2023-04-25T06:37:00;100162.16;;;7.82
65316;BMP280;51920;53.952;10.292;2023-04-25T06:39:29;100170.72;;;7.54
65316;BMP280;51920;53.952;10.292;2023-04-25T06:41:56;100165.41;;;7.61
65316;BMP280;51920;53.952;10.292;2023-04-25T06:44:48;100172.75;;;7.64
65316;BMP280;51920;53.952;10.292;2023-04-25T06:47:16;100163.88;;;7.60
65316;BMP280;51920;53.952;10.292;2023-04-25T06:49:43;100176.03;;;7.47
65316;BMP280;51920;53.952;10.292;2023-04-25T06:52:10;100180.78;;;7.57
65316;BMP280;51920;53.952;10.292;2023-04-25T06:54:37;100174.31;;;7.65
65316;BMP280;51920;53.952;10.292;2023-04-25T06:57:16;100174.66;;;7.64
65316;BMP280;51920;53.952;10.292;2023-04-25T06:59:43;100173.16;;;7.66
65316;BMP280;51920;53.952;10.292;2023-04-25T07:02:10;100178.13;;;7.61
65316;BMP280;51920;53.952;10.292;2023-04-25T07:04:37;100181.19;;;7.59
65316;BMP280;51920;53.952;10.292;2023-04-25T07:07:04;100177.41;;;7.67
65316;BMP280;51920;53.952;10.292;2023-04-25T07:09:40;100178.28;;;7.79
65316;BMP280;51920;53.952;10.292;2023-04-25T07:12:07;100181.16;;;8.00
65316;BMP280;51920;53.952;10.292;2023-04-25T07:14:34;100188.44;;;7.93
65316;BMP280;51920;53.952;10.292;2023-04-25T07:17:01;100185.88;;;8.11
65316;BMP280;51920;53.952;10.292;2023-04-25T07:19:30;100188.28;;;8.19
65316;BMP280;51920;53.952;10.292;2023-04-25T07:22:00;100187.69;;;8.44
65316;BMP280;51920;53.952;10.292;2023-04-25T07:24:27;100203.50;;;8.42
65316;BMP280;51920;53.952;10.292;2023-04-25T07:26:55;100196.66;;;8.59
65316;BMP280;51920;53.952;10.292;2023-04-25T07:29:40;100217.81;;;9.16
65316;BMP280;51920;53.952;10.292;2023-04-25T07:32:08;100212.78;;;9.07
65316;BMP280;51920;53.952;10.292;2023-04-25T07:34:34;100208.72;;;8.76
65316;BMP280;51920;53.952;10.292;2023-04-25T07:37:04;100217.91;;;8.60
65316;BMP280;51920;53.952;10.292;2023-04-25T07:39:38;100215.44;;;8.41
65316;BMP280;51920;53.952;10.292;2023-04-25T07:42:05;100207.69;;;8.36
65316;BMP280;51920;53.952;10.292;2023-04-25T07:44:34;100211.22;;;8.40
65316;BMP280;51920;53.952;10.292;2023-04-25T07:47:06;100213.13;;;8.39
65316;BMP280;51920;53.952;10.292;2023-04-25T07:49:34;100209.88;;;8.19
65316;BMP280;51920;53.952;10.292;2023-04-25T07:52:02;100214.69;;;8.40
65316;BMP280;51920;53.952;10.292;2023-04-25T07:54:29;100217.47;;;8.55
65316;BMP280;51920;53.952;10.292;2023-04-25T07:57:02;100213.00;;;8.77
65316;BMP280;51920;53.952;10.292;2023-04-25T07:59:30;100220.25;;;9.42
65316;BMP280;51920;53.952;10.292;2023-04-25T08:02:00;100227.31;;;10.22
65316;BMP280;51920;53.952;10.292;2023-04-25T08:04:27;100222.97;;;10.71
65316;BMP280;51920;53.952;10.292;2023-04-25T08:06:58;100231.72;;;11.22
65316;BMP280;51920;53.952;10.292;2023-04-25T08:09:30;100224.94;;;10.71
65316;BMP280;51920;53.952;10.292;2023-04-25T08:12:03;100219.97;;;10.37
65316;BMP280;51920;53.952;10.292;2023-04-25T08:14:31;100223.81;;;10.43
65316;BMP280;51920;53.952;10.292;2023-04-25T08:17:05;100222.31;;;10.21
65316;BMP280;51920;53.952;10.292;2023-04-25T08:19:37;100229.22;;;10.22
65316;BMP280;51920;53.952;10.292;2023-04-25T08:22:05;100227.69;;;10.13
65316;BMP280;51920;53.952;10.292;2023-04-25T08:24:42;100235.38;;;9.76
65316;BMP280;51920;53.952;10.292;2023-04-25T08:27:09;100240.41;;;9.81
65316;BMP280;51920;53.952;10.292;2023-04-25T08:29:36;100228.28;;;9.31
65316;BMP280;51920;53.952;10.292;2023-04-25T08:32:03;100239.50;;;9.26
65316;BMP280;51920;53.952;10.292;2023-04-25T08:34:30;100243.94;;;9.92
65316;BMP280;51920;53.952;10.292;2023-04-25T08:37:01;100247.00;;;10.59
65316;BMP280;51920;53.952;10.292;2023-04-25T08:39:42;100252.84;;;10.35
65316;BMP280;51920;53.952;10.292;2023-04-25T08:42:12;100253.97;;;10.24
65316;BMP280;51920;53.952;10.292;2023-04-25T08:44:39;100247.78;;;10.48
65316;BMP280;51920;53.952;10.292;2023-04-25T08:47:06;100260.19;;;10.53
65316;BMP280;51920;53.952;10.292;2023-04-25T08:49:45;100269.06;;;10.10
65316;BMP280;51920;53.952;10.292;2023-04-25T08:52:13;100266.28;;;9.64
65316;BMP280;51920;53.952;10.292;2023-04-25T08:54:48;100270.47;;;9.47
65316;BMP280;51920;53.952;10.292;2023-04-25T08:57:17;100273.03;;;9.18
65316;BMP280;51920;53.952;10.292;2023-04-25T08:59:45;100287.22;;;9.04
65316;BMP280;51920;53.952;10.292;2023-04-25T09:02:13;100289.50;;;8.99
65316;BMP280;51920;53.952;10.292;2023-04-25T09:04:47;100289.50;;;8.99
65316;BMP280;51920;53.952;10.292;2023-04-25T09:07:14;100295.78;;;9.17
65316;BMP280;51920;53.952;10.292;2023-04-25T09:09:44;100296.53;;;9.07
65316;BMP280;51920;53.952;10.292;2023-04-25T09:12:12;100302.16;;;8.84
65316;BMP280;51920;53.952;10.292;2023-04-25T09:14:39;100310.69;;;8.89
65316;BMP280;51920;53.952;10.292;2023-04-25T09:17:19;100308.88;;;9.08
65316;BMP280;51920;53.952;10.292;2023-04-25T09:19:48;100307.75;;;9.16
65316;BMP280;51920;53.952;10.292;2023-04-25T09:22:29;100315.03;;;9.96
65316;BMP280;51920;53.952;10.292;2023-04-25T09:24:57;100311.25;;;10.44
65316;BMP280;51920;53.952;10.292;2023-04-25T09:27:27;100307.34;;;10.48
65316;BMP280;51920;53.952;10.292;2023-04-25T09:30:12;100312.00;;;10.30
65316;BMP280;51920;53.952;10.292;2023-04-25T09:33:06;100322.06;;;10.33
65316;BMP280;51920;53.952;10.292;2023-04-25T09:35:37;100315.09;;;10.61
65316;BMP280;51920;53.952;10.292;2023-04-25T09:38:10;100323.59;;;10.55
65316;BMP280;51920;53.952;10.292;2023-04-25T09:40:55;100329.41;;;10.57
65316;BMP280;51920;53.952;10.292;2023-04-25T09:43:32;100323.59;;;10.48
65316;BMP280;51920;53.952;10.292;2023-04-25T09:45:59;100328.59;;;10.10
65316;BMP280;51920;53.952;10.292;2023-04-25T09:48:29;100337.03;;;9.87
65316;BMP280;51920;53.952;10.292;2023-04-25T09:51:09;100354.09;;;9.18
65316;BMP280;51920;53.952;10.292;2023-04-25T09:53:41;100375.03;;;8.39
65316;BMP280;51920;53.952;10.292;2023-04-25T09:56:16;100362.72;;;8.04
65316;BMP280;51920;53.952;10.292;2023-04-25T09:58:49;100374.75;;;7.54
65316;BMP280;51920;53.952;10.292;2023-04-25T10:01:16;100376.44;;;7.62
65316;BMP280;51920;53.952;10.292;2023-04-25T10:03:57;100379.50;;;7.64
65316;BMP280;51920;53.952;10.292;2023-04-25T10:06:48;100352.66;;;7.71
65316;BMP280;51920;53.952;10.292;2023-04-25T10:09:19;100371.88;;;8.00
65316;BMP280;51920;53.952;10.292;2023-04-25T10:11:47;100362.19;;;8.25
65316;BMP280;51920;53.952;10.292;2023-04-25T10:14:18;100368.56;;;8.47
65316;BMP280;51920;53.952;10.292;2023-04-25T10:17:10;100370.34;;;8.74
65316;BMP280;51920;53.952;10.292;2023-04-25T10:19:37;100357.03;;;8.51
65316;BMP280;51920;53.952;10.292;2023-04-25T10:22:07;100365.03;;;8.43
65316;BMP280;51920;53.952;10.292;2023-04-25T10:24:36;100344.06;;;8.26
65316;BMP280;51920;53.952;10.292;2023-04-25T10:27:04;100353.53;;;8.50
65316;BMP280;51920;53.952;10.292;2023-04-25T10:29:30;100364.47;;;8.64
65316;BMP280;51920;53.952;10.292;2023-04-25T10:31:57;100357.50;;;8.60
65316;BMP280;51920;53.952;10.292;2023-04-25T10:34:38;100384.63;;;8.74
65316;BMP280;51920;53.952;10.292;2023-04-25T10:37:09;100382.47;;;8.94
65316;BMP280;51920;53.952;10.292;2023-04-25T10:39:39;100383.88;;;9.25
65316;BMP280;51920;53.952;10.292;2023-04-25T10:42:06;100375.53;;;9.59
65316;BMP280;51920;53.952;10.292;2023-04-25T10:44:34;100393.53;;;10.07
65316;BMP280;51920;53.952;10.292;2023-04-25T10:47:03;100371.59;;;10.51
65316;BMP280;51920;53.952;10.292;2023-04-25T10:49:41;100367.72;;;10.67
65316;BMP280;51920;53.952;10.292;2023-04-25T10:52:46;100369.63;;;10.41
65316;BMP280;51920;53.952;10.292;2023-04-25T10:55:06;100373.13;;;10.49
65316;BMP280;51920;53.952;10.292;2023-04-25T10:57:41;100386.28;;;10.57
65316;BMP280;51920;53.952;10.292;2023-04-25T11:00:12;100373.16;;;10.45
65316;BMP280;51920;53.952;10.292;2023-04-25T11:02:48;100378.94;;;10.58
65316;BMP280;51920;53.952;10.292;2023-04-25T11:05:32;100373.50;;;10.47
65316;BMP280;51920;53.952;10.292;2023-04-25T11:08:00;100363.06;;;10.56
65316;BMP280;51920;53.952;10.292;2023-04-25T11:10:33;100377.41;;;11.04
65316;BMP280;51920;53.952;10.292;2023-04-25T11:13:02;100377.63;;;11.56
65316;BMP280;51920;53.952;10.292;2023-04-25T11:15:29;100378.47;;;11.38
65316;BMP280;51920;53.952;10.292;2023-04-25T11:17:56;100384.31;;;11.05
65316;BMP280;51920;53.952;10.292;2023-04-25T11:20:25;100405.19;;;9.38
65316;BMP280;51920;53.952;10.292;2023-04-25T11:22:52;100423.56;;;8.36
65316;BMP280;51920;53.952;10.292;2023-04-25T11:25:19;100435.84;;;7.99
65316;BMP280;51920;53.952;10.292;2023-04-25T11:30:17;100434.09;;;7.84
65316;BMP280;51920;53.952;10.292;2023-04-25T11:32:46;100439.56;;;7.61
65316;BMP280;51920;53.952;10.292;2023-04-25T11:35:13;100458.34;;;7.57
65316;BMP280;51920;53.952;10.292;2023-04-25T11:37:41;100436.19;;;7.67
65316;BMP280;51920;53.952;10.292;2023-04-25T11:40:08;100463.56;;;7.96
65316;BMP280;51920;53.952;10.292;2023-04-25T11:42:42;100455.53;;;8.03
65316;BMP280;51920;53.952;10.292;2023-04-25T11:45:09;100447.13;;;8.39
65316;BMP280;51920;53.952;10.292;2023-04-25T11:47:37;100468.97;;;8.60
65316;BMP280;51920;53.952;10.292;2023-04-25T11:50:06;100458.81;;;8.87
65316;BMP280;51920;53.952;10.292;2023-04-25T11:52:41;100434.63;;;9.02
65316;BMP280;51920;53.952;10.292;2023-04-25T11:55:19;100446.81;;;9.29
65316;BMP280;51920;53.952;10.292;2023-04-25T11:57:49;100449.38;;;9.70
65316;BMP280;51920;53.952;10.292;2023-04-25T12:00:19;100441.66;;;9.65
65316;BMP280;51920;53.952;10.292;2023-04-25T12:02:50;100433.31;;;9.92
65316;BMP280;51920;53.952;10.292;2023-04-25T12:05:17;100432.22;;;10.22
65316;BMP280;51920;53.952;10.292;2023-04-25T12:07:47;100421.84;;;10.34
65316;BMP280;51920;53.952;10.292;2023-04-25T12:10:14;100433.13;;;10.69
65316;BMP280;51920;53.952;10.292;2023-04-25T12:12:42;100436.56;;;10.59
65316;BMP280;51920;53.952;10.292;2023-04-25T12:17:38;100440.63;;;9.91
65316;BMP280;51920;53.952;10.292;2023-04-25T12:20:10;100477.47;;;9.00
65316;BMP280;51920;53.952;10.292;2023-04-25T12:22:37;100470.19;;;7.76
65316;BMP280;51920;53.952;10.292;2023-04-25T12:25:04;100463.78;;;7.34
65316;BMP280;51920;53.952;10.292;2023-04-25T12:27:31;100479.59;;;7.36
65316;BMP280;51920;53.952;10.292;2023-04-25T12:29:58;100470.81;;;7.39
65316;BMP280;51920;53.952;10.292;2023-04-25T12:32:28;100482.50;;;7.50
65316;BMP280;51920;53.952;10.292;2023-04-25T12:34:54;100480.28;;;7.56
65316;BMP280;51920;53.952;10.292;2023-04-25T12:37:22;100479.63;;;7.62
65316;BMP280;51920;53.952;10.292;2023-04-25T12:39:48;100473.72;;;7.80
65316;BMP280;51920;53.952;10.292;2023-04-25T12:42:15;100481.59;;;8.19
65316;BMP280;51920;53.952;10.292;2023-04-25T12:44:42;100469.94;;;8.45
65316;BMP280;51920;53.952;10.292;2023-04-25T12:47:09;100465.38;;;8.53
65316;BMP280;51920;53.952;10.292;2023-04-25T12:49:36;100476.47;;;8.78
65316;BMP280;51920;53.952;10.292;2023-04-25T12:52:02;100474.34;;;8.98
65316;BMP280;51920;53.952;10.292;2023-04-25T12:54:29;100469.88;;;9.16
65316;BMP280;51920;53.952;10.292;2023-04-25T12:56:56;100472.31;;;9.32
65316;BMP280;51920;53.952;10.292;2023-04-25T12:59:23;100478.97;;;9.45
65316;BMP280;51920;53.952;10.292;2023-04-25T13:01:49;100474.00;;;9.51
65316;BMP280;51920;53.952;10.292;2023-04-25T13:04:16;100469.16;;;9.75
65316;BMP280;51920;53.952;10.292;2023-04-25T13:06:44;100464.91;;;9.81
65316;BMP280;51920;53.952;10.292;2023-04-25T13:09:10;100446.38;;;9.83
65316;BMP280;51920;53.952;10.292;2023-04-25T13:11:38;100476.22;;;10.04
65316;BMP280;51920;53.952;10.292;2023-04-25T13:14:05;100449.88;;;9.87
65316;BMP280;51920;53.952;10.292;2023-04-25T13:16:31;100461.88;;;9.86
65316;BMP280;51920;53.952;10.292;2023-04-25T13:18:58;100480.41;;;9.87
65316;BMP280;51920;53.952;10.292;2023-04-25T13:21:29;100480.75;;;9.75
65316;BMP280;51920;53.952;10.292;2023-04-25T13:23:57;100472.78;;;9.41
65316;BMP280;51920;53.952;10.292;2023-04-25T13:26:23;100497.13;;;9.45
65316;BMP280;51920;53.952;10.292;2023-04-25T13:28:50;100473.09;;;9.32
65316;BMP280;51920;53.952;10.292;2023-04-25T13:31:17;100485.50;;;9.41
65316;BMP280;51920;53.952;10.292;2023-04-25T13:33:43;100480.50;;;9.39
65316;BMP280;51920;53.952;10.292;2023-04-25T13:36:10;100510.53;;;9.82
65316;BMP280;51920;53.952;10.292;2023-04-25T13:38:37;100489.84;;;10.15
65316;BMP280;51920;53.952;10.292;2023-04-25T13:41:05;100497.97;;;10.22
65316;BMP280;51920;53.952;10.292;2023-04-25T13:43:33;100496.13;;;10.48
65316;BMP280;51920;53.952;10.292;2023-04-25T13:46:01;100492.28;;;10.45
65316;BMP280;51920;53.952;10.292;2023-04-25T13:48:29;100492.09;;;10.02
65316;BMP280;51920;53.952;10.292;2023-04-25T13:50:55;100485.72;;;9.66
65316;BMP280;51920;53.952;10.292;2023-04-25T13:53:22;100482.91;;;9.51
65316;BMP280;51920;53.952;10.292;2023-04-25T13:55:49;100508.50;;;9.68
65316;BMP280;51920;53.952;10.292;2023-04-25T13:58:17;100509.69;;;9.67
65316;BMP280;51920;53.952;10.292;2023-04-25T14:00:44;100516.56;;;9.61
65316;BMP280;51920;53.952;10.292;2023-04-25T14:03:12;100515.88;;;9.71
65316;BMP280;51920;53.952;10.292;2023-04-25T14:05:38;100523.69;;;9.84
65316;BMP280;51920;53.952;10.292;2023-04-25T14:08:07;100510.69;;;9.52
65316;BMP280;51920;53.952;10.292;2023-04-25T14:10:35;100537.41;;;9.57
65316;BMP280;51920;53.952;10.292;2023-04-25T14:13:02;100543.72;;;9.27
65316;BMP280;51920;53.952;10.292;2023-04-25T14:15:31;100506.75;;;8.98
65316;BMP280;51920;53.952;10.292;2023-04-25T14:17:58;100541.00;;;9.27
65316;BMP280;51920;53.952;10.292;2023-04-25T14:20:26;100532.19;;;9.34